createdAt,value
2017-03-18T02:38:33.205Z,937.8
2017-03-18T02:39:39.084Z,937.8
2017-03-18T02:40:47.175Z,937.8
2017-03-18T02:41:55.254Z,937.7
2017-03-18T02:43:03.579Z,937.8
2017-03-18T02:44:11.493Z,937.8
2017-03-18T02:45:19.522Z,937.8
2017-03-18T02:46:27.662Z,937.8
2017-03-18T02:47:35.703Z,937.8
2017-03-18T02:48:43.786Z,937.8
2017-03-18T02:49:52.043Z,937.8
2017-03-18T02:51:00.059Z,937.8
2017-03-18T02:52:08.043Z,937.8
2017-03-18T02:53:16.128Z,937.8
2017-03-18T02:54:24.217Z,937.8
2017-03-18T02:55:32.812Z,937.8
2017-03-18T02:56:40.449Z,937.8
2017-03-18T02:57:48.481Z,937.9
2017-03-18T02:58:56.571Z,937.8
2017-03-18T03:00:04.654Z,937.8
2017-03-18T03:01:12.796Z,937.8
2017-03-18T03:02:20.832Z,937.8
2017-03-18T03:03:28.918Z,937.8
2017-03-18T03:04:37.002Z,937.8
2017-03-18T03:05:45.277Z,937.8
2017-03-18T03:06:53.236Z,937.8
2017-03-18T03:08:01.266Z,937.8
2017-03-18T03:09:09.357Z,937.8
2017-03-18T03:10:17.442Z,937.7
2017-03-18T03:11:25.530Z,937.8
2017-03-18T03:12:33.739Z,937.8
2017-03-18T03:13:41.709Z,937.8
2017-03-18T03:14:49.796Z,937.8
2017-03-18T03:15:57.880Z,937.8
2017-03-18T03:17:06.170Z,937.8
2017-03-18T03:18:14.126Z,937.8
2017-03-18T03:19:22.164Z,937.8
2017-03-18T03:20:30.245Z,937.8
2017-03-18T03:21:38.330Z,937.9
2017-03-18T03:22:46.421Z,937.9
2017-03-18T03:23:54.565Z,937.9
2017-03-18T03:25:02.590Z,937.9
2017-03-18T03:26:10.682Z,937.9
2017-03-18T03:27:18.769Z,937.9
2017-03-18T03:28:27.364Z,937.9
2017-03-18T03:29:35.147Z,937.9
2017-03-18T03:30:43.034Z,937.9
2017-03-18T03:31:51.121Z,938.0
2017-03-18T03:32:59.212Z,938.0
2017-03-18T03:34:07.312Z,938.0
2017-03-18T03:35:15.455Z,938.0
2017-03-18T03:36:23.477Z,938.0
2017-03-18T03:37:31.561Z,938.0
2017-03-18T03:38:39.797Z,938.1
2017-03-18T03:39:47.735Z,938.1
2017-03-18T03:40:56.332Z,938.2
2017-03-18T03:42:03.921Z,938.2
2017-03-18T03:43:12.008Z,938.2
2017-03-18T03:44:20.151Z,938.3
2017-03-18T03:45:28.182Z,938.3
2017-03-18T03:46:36.331Z,938.3
2017-03-18T03:47:44.361Z,938.4
2017-03-18T03:48:52.439Z,938.3
2017-03-18T03:50:00.528Z,938.3
2017-03-18T03:51:08.615Z,938.3
2017-03-18T03:52:16.758Z,938.3
2017-03-18T03:53:24.798Z,938.3
2017-03-18T03:54:33.079Z,938.3
2017-03-18T03:55:40.979Z,938.2
2017-03-18T03:56:49.061Z,938.2
2017-03-18T03:57:57.658Z,938.2
2017-03-18T03:59:05.237Z,938.1
2017-03-18T04:00:13.382Z,938.2
2017-03-18T04:01:21.420Z,938.2
2017-03-18T04:02:29.511Z,938.1
2017-03-18T04:03:37.651Z,938.1
2017-03-18T04:04:45.791Z,938.1
2017-03-18T04:05:53.777Z,938.2
2017-03-18T04:07:01.862Z,938.1
2017-03-18T04:08:09.946Z,938.1
2017-03-18T04:09:18.090Z,938.1
2017-03-18T04:10:26.128Z,938.1
2017-03-18T04:11:34.217Z,938.1
2017-03-18T04:12:42.305Z,938.1
2017-03-18T04:13:50.395Z,938.0
2017-03-18T04:14:59.080Z,938.1
2017-03-18T04:16:06.624Z,938.1
2017-03-18T04:17:14.657Z,938.0
2017-03-18T04:18:22.753Z,938.1
2017-03-18T04:19:30.841Z,938.0
2017-03-18T04:20:39.042Z,938.0
2017-03-18T04:21:47.019Z,938.1
2017-03-18T04:22:55.108Z,938.1
2017-03-18T04:24:03.191Z,938.1
2017-03-18T04:25:11.282Z,938.1
2017-03-18T04:26:19.881Z,938.1
2017-03-18T04:27:27.454Z,938.2
2017-03-18T04:28:35.544Z,938.3
2017-03-18T04:29:43.633Z,938.2
2017-03-18T04:30:51.797Z,938.3
2017-03-18T04:31:59.923Z,938.3
2017-03-18T04:33:07.898Z,938.2
2017-03-18T04:34:15.981Z,938.2
2017-03-18T04:35:24.072Z,938.3
2017-03-18T04:36:32.160Z,938.3
2017-03-18T04:37:40.307Z,938.2
2017-03-18T04:38:48.331Z,938.2
2017-03-18T04:39:56.952Z,938.3
2017-03-18T04:41:04.517Z,938.3
2017-03-18T04:42:12.602Z,938.2
2017-03-18T04:43:21.197Z,938.3
2017-03-18T04:44:28.782Z,938.2
2017-03-18T04:45:36.870Z,938.2
2017-03-18T04:46:45.119Z,938.2
2017-03-18T04:47:53.099Z,938.1
2017-03-18T04:49:01.187Z,938.2
2017-03-18T04:50:09.219Z,938.1
2017-03-18T04:51:17.306Z,938.2
2017-03-18T04:52:25.402Z,938.1
2017-03-18T04:53:33.489Z,938.3
2017-03-18T04:54:42.082Z,938.4
2017-03-18T04:55:49.663Z,938.2
2017-03-18T04:56:57.903Z,938.2
2017-03-18T04:58:05.991Z,938.2
2017-03-18T04:59:13.930Z,938.2
2017-03-18T05:00:22.086Z,938.1
2017-03-18T05:01:30.103Z,938.2
2017-03-18T05:02:38.190Z,938.1
2017-03-18T05:03:46.335Z,938.2
2017-03-18T05:04:54.369Z,938.1
2017-03-18T05:06:02.962Z,938.1
2017-03-18T05:07:10.542Z,938.1
2017-03-18T05:08:18.733Z,938.2
2017-03-18T05:09:26.732Z,938.1
2017-03-18T05:10:34.812Z,938.1
2017-03-18T05:11:42.956Z,938.1
2017-03-18T05:12:50.990Z,938.1
2017-03-18T05:13:59.078Z,938.1
2017-03-18T05:15:07.165Z,938.1
2017-03-18T05:16:15.253Z,938.1
2017-03-18T05:17:23.396Z,938.2
2017-03-18T05:18:31.427Z,938.1
2017-03-18T05:19:40.022Z,938.0
2017-03-18T05:20:47.610Z,938.0
2017-03-18T05:21:55.729Z,938.0
2017-03-18T05:23:03.848Z,938.0
2017-03-18T05:24:11.993Z,938.1
2017-03-18T05:25:19.970Z,937.9
2017-03-18T05:26:28.053Z,938.0
2017-03-18T05:27:36.142Z,937.9
2017-03-18T05:28:44.291Z,938.0
2017-03-18T05:29:52.322Z,938.0
2017-03-18T05:31:00.403Z,937.9
2017-03-18T05:32:08.503Z,938.0
2017-03-18T05:33:16.582Z,938.0
2017-03-18T05:34:24.763Z,937.9
2017-03-18T05:35:33.262Z,938.0
2017-03-18T05:36:40.846Z,938.0
2017-03-18T05:37:48.936Z,937.9
2017-03-18T05:38:57.182Z,937.9
2017-03-18T05:40:05.316Z,938.0
2017-03-18T05:41:13.197Z,938.0
2017-03-18T05:42:21.282Z,937.8
2017-03-18T05:43:29.371Z,937.9
2017-03-18T05:44:37.458Z,937.9
2017-03-18T05:45:45.603Z,937.9
2017-03-18T05:46:53.636Z,937.9
2017-03-18T05:48:01.722Z,937.8
2017-03-18T05:49:09.815Z,937.9
2017-03-18T05:50:18.034Z,937.8
2017-03-18T05:51:26.495Z,937.8
2017-03-18T05:52:34.085Z,937.9
2017-03-18T05:53:42.171Z,937.8
2017-03-18T05:54:50.255Z,937.8
2017-03-18T05:55:58.371Z,937.8
2017-03-18T05:57:06.492Z,937.8
2017-03-18T05:58:14.525Z,937.8
2017-03-18T05:59:22.610Z,937.8
2017-03-18T06:00:30.833Z,937.8
2017-03-18T06:01:38.900Z,937.7
2017-03-18T06:02:46.929Z,937.8
2017-03-18T06:03:54.964Z,937.9
2017-03-18T06:05:03.053Z,937.7
2017-03-18T06:06:11.133Z,937.8
2017-03-18T06:07:19.281Z,937.7
2017-03-18T06:08:27.820Z,937.8
2017-03-18T06:09:35.432Z,937.8
2017-03-18T06:10:43.492Z,937.7
2017-03-18T06:11:51.690Z,937.7
2017-03-18T06:12:59.667Z,937.7
2017-03-18T06:14:07.808Z,937.6
2017-03-18T06:15:15.845Z,937.6
2017-03-18T06:16:23.932Z,937.6
2017-03-18T06:17:32.016Z,937.6
2017-03-18T06:18:40.104Z,937.5
2017-03-18T06:19:48.702Z,937.6
2017-03-18T06:20:56.288Z,937.7
2017-03-18T06:22:04.421Z,937.6
2017-03-18T06:23:12.517Z,937.7
2017-03-18T06:24:20.559Z,937.6
2017-03-18T06:25:28.702Z,937.7
2017-03-18T06:26:36.846Z,937.7
2017-03-18T06:27:45.010Z,937.7
2017-03-18T06:28:52.909Z,937.7
2017-03-18T06:30:00.996Z,937.7
2017-03-18T06:31:09.144Z,937.7
2017-03-18T06:32:17.176Z,937.6
2017-03-18T06:33:25.271Z,937.6
2017-03-18T06:34:33.356Z,937.6
2017-03-18T06:35:41.449Z,937.6
2017-03-18T06:36:50.046Z,937.7
2017-03-18T06:37:57.733Z,937.7
2017-03-18T06:39:05.773Z,937.6
2017-03-18T06:40:13.809Z,937.6
2017-03-18T06:41:21.892Z,937.7
2017-03-18T06:42:30.039Z,937.5
2017-03-18T06:43:38.082Z,937.5
2017-03-18T06:44:46.160Z,937.5
2017-03-18T06:45:54.250Z,937.5
2017-03-18T06:47:02.342Z,937.5
2017-03-18T06:48:10.490Z,937.6
2017-03-18T06:49:18.521Z,937.6
2017-03-18T06:50:26.612Z,937.6
2017-03-18T06:51:34.703Z,937.7
2017-03-18T06:52:42.785Z,937.8
2017-03-18T06:53:51.484Z,937.7
2017-03-18T06:54:59.026Z,937.8
2017-03-18T06:56:07.062Z,937.8
2017-03-18T06:57:15.151Z,937.8
2017-03-18T06:58:23.235Z,937.8
2017-03-18T06:59:31.382Z,937.6
2017-03-18T07:00:39.414Z,937.6
2017-03-18T07:01:47.495Z,937.6
2017-03-18T07:02:55.590Z,937.6
2017-03-18T07:04:03.745Z,937.5
2017-03-18T07:05:12.325Z,937.5
2017-03-18T07:06:19.856Z,937.4
2017-03-18T07:07:27.948Z,937.5
2017-03-18T07:08:36.217Z,937.6
2017-03-18T07:09:44.298Z,937.6
2017-03-18T07:10:52.268Z,937.6
2017-03-18T07:12:00.297Z,937.6
2017-03-18T07:13:08.381Z,937.6
2017-03-18T07:14:16.474Z,937.7
2017-03-18T07:15:24.564Z,937.6
2017-03-18T07:16:32.706Z,937.7
2017-03-18T07:17:40.740Z,937.6
2017-03-18T07:18:48.827Z,937.8
2017-03-18T07:19:57.093Z,937.7
2017-03-18T07:21:05.002Z,937.7
2017-03-18T07:22:13.593Z,937.6
2017-03-18T07:23:21.181Z,937.9
2017-03-18T07:24:29.271Z,937.7
2017-03-18T07:25:37.355Z,937.6
2017-03-18T07:26:45.501Z,937.6
2017-03-18T07:27:53.594Z,937.6
2017-03-18T07:29:01.617Z,937.7
2017-03-18T07:30:09.835Z,937.6
2017-03-18T07:31:17.909Z,937.6
2017-03-18T07:32:25.890Z,937.6
2017-03-18T07:33:34.030Z,937.5
2017-03-18T07:34:42.062Z,937.5
2017-03-18T07:35:50.157Z,937.6
2017-03-18T07:36:58.234Z,937.5
2017-03-18T07:38:06.326Z,937.6
2017-03-18T07:39:14.480Z,937.5
2017-03-18T07:40:22.508Z,937.6
2017-03-18T07:41:30.684Z,937.6
2017-03-18T07:42:38.738Z,937.5
2017-03-18T07:43:46.774Z,937.5
2017-03-18T07:44:54.912Z,937.6
2017-03-18T07:46:02.945Z,937.5
2017-03-18T07:47:11.032Z,937.5
2017-03-18T07:48:19.121Z,937.4
2017-03-18T07:49:27.207Z,937.5
2017-03-18T07:50:35.798Z,937.5
2017-03-18T07:51:43.378Z,937.4
2017-03-18T07:52:51.469Z,937.5
2017-03-18T07:53:59.557Z,937.4
2017-03-18T07:55:07.642Z,937.4
2017-03-18T07:56:15.975Z,937.4
2017-03-18T07:57:23.979Z,937.4
2017-03-18T07:58:32.408Z,937.3
2017-03-18T07:59:39.987Z,937.5
2017-03-18T08:00:48.079Z,937.5
2017-03-18T08:01:56.219Z,937.4
2017-03-18T08:03:04.251Z,937.6
2017-03-18T08:04:12.341Z,937.5
2017-03-18T08:05:20.424Z,937.5
2017-03-18T08:06:28.515Z,937.5
2017-03-18T08:07:36.765Z,937.6
2017-03-18T08:08:44.759Z,937.5
2017-03-18T08:09:52.778Z,937.4
2017-03-18T08:11:00.863Z,937.4
2017-03-18T08:12:08.951Z,937.4
2017-03-18T08:13:17.279Z,937.4
2017-03-18T08:14:25.183Z,937.4
2017-03-18T08:15:33.209Z,937.4
2017-03-18T08:16:41.299Z,937.3
2017-03-18T08:17:49.389Z,937.3
2017-03-18T08:18:57.531Z,937.4
2017-03-18T08:20:05.553Z,937.3
2017-03-18T08:21:13.649Z,937.3
2017-03-18T08:22:21.739Z,937.4
2017-03-18T08:23:29.982Z,937.3
2017-03-18T08:24:37.969Z,937.3
2017-03-18T08:25:46.005Z,937.4
2017-03-18T08:26:54.095Z,937.4
2017-03-18T08:28:02.181Z,937.4
2017-03-18T08:29:10.286Z,937.4
2017-03-18T08:30:18.421Z,937.4
2017-03-18T08:31:26.454Z,937.5
2017-03-18T08:32:34.535Z,937.5
2017-03-18T08:33:42.792Z,937.4
2017-03-18T08:34:50.858Z,937.5
2017-03-18T08:35:58.859Z,937.4
2017-03-18T08:37:06.887Z,937.4
2017-03-18T08:38:15.069Z,937.5
2017-03-18T08:39:23.073Z,937.5
2017-03-18T08:40:31.149Z,937.5
2017-03-18T08:41:39.295Z,937.5
2017-03-18T08:42:47.361Z,937.5
2017-03-18T08:43:55.410Z,937.6
2017-03-18T08:45:03.583Z,937.6
2017-03-18T08:46:11.793Z,937.5
2017-03-18T08:47:20.185Z,937.7
2017-03-18T08:48:27.763Z,937.8
2017-03-18T08:49:35.854Z,937.7
2017-03-18T08:50:43.939Z,937.6
2017-03-18T08:51:52.022Z,937.8
2017-03-18T08:53:02.206Z,937.8
2017-03-18T08:54:08.325Z,937.8
2017-03-18T08:55:16.322Z,937.7
2017-03-18T08:56:24.388Z,937.7
2017-03-18T08:57:32.461Z,937.8
2017-03-18T08:58:41.053Z,937.8
2017-03-18T08:59:48.632Z,937.9
2017-03-18T09:00:56.905Z,937.8
2017-03-18T09:02:04.862Z,937.9
2017-03-18T09:03:12.888Z,937.9
2017-03-18T09:04:21.034Z,937.9
2017-03-18T09:05:29.065Z,937.9
2017-03-18T09:06:37.161Z,938.0
2017-03-18T09:07:45.244Z,938.0
2017-03-18T09:08:53.335Z,938.1
2017-03-18T09:10:01.926Z,938.1
2017-03-18T09:11:09.507Z,938.0
2017-03-18T09:12:17.687Z,938.0
2017-03-18T09:13:25.683Z,937.9
2017-03-18T09:14:33.769Z,938.0
2017-03-18T09:15:41.910Z,937.8
2017-03-18T09:16:49.948Z,937.9
2017-03-18T09:17:58.088Z,937.9
2017-03-18T09:19:06.117Z,938.0
2017-03-18T09:20:14.205Z,938.0
2017-03-18T09:21:22.793Z,938.1
2017-03-18T09:22:30.384Z,938.0
2017-03-18T09:23:38.461Z,938.1
2017-03-18T09:24:46.553Z,938.0
2017-03-18T09:25:54.643Z,938.0
2017-03-18T09:27:03.157Z,938.1
2017-03-18T09:28:10.818Z,938.0
2017-03-18T09:29:18.909Z,938.1
2017-03-18T09:30:27.442Z,938.1
2017-03-18T09:31:35.074Z,938.0
2017-03-18T09:32:43.671Z,938.1
2017-03-18T09:33:51.313Z,938.2
2017-03-18T09:34:59.346Z,938.2
2017-03-18T09:36:07.432Z,938.2
2017-03-18T09:37:15.517Z,938.1
2017-03-18T09:38:23.663Z,938.2
2017-03-18T09:39:32.017Z,938.2
2017-03-18T09:40:39.778Z,938.2
2017-03-18T09:41:48.056Z,938.2
2017-03-18T09:42:56.123Z,938.2
2017-03-18T09:44:04.094Z,938.2
2017-03-18T09:45:12.140Z,938.2
2017-03-18T09:46:20.213Z,938.2
2017-03-18T09:47:28.294Z,938.2
2017-03-18T09:48:36.386Z,938.1
2017-03-18T09:49:44.974Z,938.1
2017-03-18T09:50:52.561Z,938.2
2017-03-18T09:52:00.646Z,938.2
2017-03-18T09:53:08.925Z,938.1
2017-03-18T09:54:16.818Z,938.2
2017-03-18T09:55:24.963Z,938.2
2017-03-18T09:56:33.000Z,938.2
2017-03-18T09:57:41.088Z,938.2
2017-03-18T09:58:49.184Z,938.1
2017-03-18T09:59:57.268Z,938.2
2017-03-18T10:01:05.862Z,938.1
2017-03-18T10:02:13.442Z,938.2
2017-03-18T10:03:21.536Z,938.2
2017-03-18T10:04:29.781Z,938.2
2017-03-18T10:05:37.768Z,938.2
2017-03-18T10:06:45.857Z,938.1
2017-03-18T10:07:54.575Z,938.3
2017-03-18T10:09:01.972Z,938.2
2017-03-18T10:10:10.063Z,938.2
2017-03-18T10:11:18.147Z,938.3
2017-03-18T10:12:26.742Z,938.2
2017-03-18T10:13:34.431Z,938.2
2017-03-18T10:14:42.413Z,938.1
2017-03-18T10:15:50.504Z,938.2
2017-03-18T10:16:58.605Z,938.2
2017-03-18T10:18:07.193Z,938.2
2017-03-18T10:19:14.777Z,938.2
2017-03-18T10:20:22.868Z,938.1
2017-03-18T10:21:31.458Z,938.2
2017-03-18T10:22:39.038Z,938.1
2017-03-18T10:23:47.193Z,938.1
2017-03-18T10:24:55.226Z,938.2
2017-03-18T10:26:03.915Z,938.2
2017-03-18T10:27:12.019Z,938.1
2017-03-18T10:28:19.559Z,938.1
2017-03-18T10:29:29.076Z,938.1
2017-03-18T10:30:35.819Z,938.1
2017-03-18T10:31:43.886Z,938.2
2017-03-18T10:32:51.844Z,938.1
2017-03-18T10:34:00.420Z,938.2
2017-03-18T10:35:08.066Z,938.2
2017-03-18T10:36:16.103Z,938.2
2017-03-18T10:37:24.253Z,938.2
2017-03-18T10:38:32.282Z,938.2
2017-03-18T10:39:40.372Z,938.2
2017-03-18T10:40:48.518Z,938.2
2017-03-18T10:41:56.547Z,938.2
2017-03-18T10:43:04.636Z,938.2
2017-03-18T10:44:12.724Z,938.3
2017-03-18T10:45:20.964Z,938.2
2017-03-18T10:46:29.091Z,938.2
2017-03-18T10:47:36.987Z,938.2
2017-03-18T10:48:45.068Z,938.2
2017-03-18T10:49:53.323Z,938.3
2017-03-18T10:51:01.242Z,938.4
2017-03-18T10:52:09.836Z,938.4
2017-03-18T10:53:17.467Z,938.4
2017-03-18T10:54:25.503Z,938.4
2017-03-18T10:55:33.591Z,938.5
2017-03-18T10:56:41.724Z,938.4
2017-03-18T10:57:49.822Z,938.4
2017-03-18T10:58:57.860Z,938.3
2017-03-18T11:00:05.949Z,938.4
2017-03-18T11:01:14.204Z,938.4
2017-03-18T11:02:22.120Z,938.5
2017-03-18T11:03:30.720Z,938.5
2017-03-18T11:04:38.298Z,938.4
2017-03-18T11:05:46.382Z,938.4
2017-03-18T11:06:54.526Z,938.5
2017-03-18T11:08:02.557Z,938.4
2017-03-18T11:09:10.765Z,938.5
2017-03-18T11:10:18.729Z,938.5
2017-03-18T11:11:26.816Z,938.5
2017-03-18T11:12:35.070Z,938.6
2017-03-18T11:13:42.986Z,938.6
2017-03-18T11:14:51.581Z,938.5
2017-03-18T11:15:59.169Z,938.5
2017-03-18T11:17:07.251Z,938.5
2017-03-18T11:18:15.338Z,938.5
2017-03-18T11:19:23.428Z,938.5
2017-03-18T11:20:31.574Z,938.5
2017-03-18T11:21:39.601Z,938.5
2017-03-18T11:22:47.855Z,938.5
2017-03-18T11:23:55.833Z,938.5
2017-03-18T11:25:04.378Z,938.5
2017-03-18T11:26:12.001Z,938.5
2017-03-18T11:27:20.033Z,938.5
2017-03-18T11:28:28.120Z,938.5
2017-03-18T11:29:36.203Z,938.5
2017-03-18T11:30:44.298Z,938.5
2017-03-18T11:31:52.442Z,938.5
2017-03-18T11:33:00.472Z,938.5
2017-03-18T11:34:08.720Z,938.4
2017-03-18T11:35:16.646Z,938.5
2017-03-18T11:36:24.735Z,938.4
2017-03-18T11:37:32.882Z,938.4
2017-03-18T11:38:40.908Z,938.5
2017-03-18T11:39:49.001Z,938.4
2017-03-18T11:40:57.139Z,938.4
2017-03-18T11:42:05.168Z,938.5
2017-03-18T11:43:13.763Z,938.5
2017-03-18T11:44:21.418Z,938.4
2017-03-18T11:45:29.427Z,938.4
2017-03-18T11:46:37.515Z,938.4
2017-03-18T11:47:45.602Z,938.4
2017-03-18T11:48:53.743Z,938.4
2017-03-18T11:50:01.771Z,938.3
2017-03-18T11:51:09.863Z,938.4
2017-03-18T11:52:17.944Z,938.3
2017-03-18T11:53:26.543Z,938.4
2017-03-18T11:54:34.125Z,938.4
2017-03-18T11:55:42.214Z,938.4
2017-03-18T11:56:50.350Z,938.4
2017-03-18T11:57:58.381Z,938.4
2017-03-18T11:59:06.527Z,938.4
2017-03-18T12:00:14.695Z,938.4
2017-03-18T12:01:22.646Z,938.4
2017-03-18T12:02:30.735Z,938.4
2017-03-18T12:03:38.823Z,938.3
2017-03-18T12:04:47.418Z,938.3
2017-03-18T12:05:55.004Z,938.3
2017-03-18T12:07:03.095Z,938.2
2017-03-18T12:08:11.175Z,938.2
2017-03-18T12:09:19.269Z,938.2
2017-03-18T12:10:27.480Z,938.2
2017-03-18T12:11:35.451Z,938.3
2017-03-18T12:12:43.599Z,938.2
2017-03-18T12:13:51.622Z,938.3
2017-03-18T12:14:59.711Z,938.2
2017-03-18T12:16:07.955Z,938.3
2017-03-18T12:17:15.878Z,938.3
2017-03-18T12:18:23.971Z,938.3
2017-03-18T12:19:32.057Z,938.3
2017-03-18T12:20:40.151Z,938.3
2017-03-18T12:21:48.297Z,938.4
2017-03-18T12:22:56.333Z,938.4
2017-03-18T12:24:04.416Z,938.4
2017-03-18T12:25:12.504Z,938.4
2017-03-18T12:26:20.690Z,938.3
2017-03-18T12:27:28.799Z,938.3
2017-03-18T12:28:36.816Z,938.3
2017-03-18T12:29:44.849Z,938.3
2017-03-18T12:30:52.938Z,938.3
2017-03-18T12:32:01.020Z,938.3
2017-03-18T12:33:09.165Z,938.3
2017-03-18T12:34:17.197Z,938.3
2017-03-18T12:35:25.282Z,938.3
2017-03-18T12:36:33.363Z,938.3
2017-03-18T12:37:41.455Z,938.3
2017-03-18T12:38:49.602Z,938.2
2017-03-18T12:39:57.622Z,938.2
2017-03-18T12:41:05.708Z,938.3
2017-03-18T12:42:13.799Z,938.2
2017-03-18T12:43:21.885Z,938.3
2017-03-18T12:44:30.476Z,938.3
2017-03-18T12:45:38.059Z,938.3
2017-03-18T12:46:46.145Z,938.2
2017-03-18T12:47:54.283Z,938.3
2017-03-18T12:49:02.360Z,938.2
2017-03-18T12:50:10.467Z,938.2
2017-03-18T12:51:18.605Z,938.2
2017-03-18T12:52:26.588Z,938.2
2017-03-18T12:53:34.682Z,938.2
2017-03-18T12:54:42.813Z,938.2
2017-03-18T12:55:51.171Z,938.2
2017-03-18T12:56:59.045Z,938.2
2017-03-18T12:58:07.445Z,938.1
2017-03-18T12:59:15.206Z,938.2
2017-03-18T13:00:23.260Z,938.1
2017-03-18T13:01:31.796Z,938.1
2017-03-18T13:02:39.385Z,938.2
2017-03-18T13:03:47.467Z,938.1
2017-03-18T13:04:55.557Z,938.2
2017-03-18T13:06:03.643Z,938.1
2017-03-18T13:07:11.783Z,938.2
2017-03-18T13:08:19.818Z,938.2
2017-03-18T13:09:27.910Z,938.2
2017-03-18T13:10:36.053Z,938.2
2017-03-18T13:11:44.081Z,938.1
2017-03-18T13:12:52.230Z,938.1
2017-03-18T13:14:00.602Z,938.1
2017-03-18T13:15:08.359Z,938.1
2017-03-18T13:16:16.938Z,938.2
2017-03-18T13:17:24.632Z,938.1
2017-03-18T13:18:32.740Z,938.1
2017-03-18T13:19:40.848Z,938.1
2017-03-18T13:20:48.791Z,938.1
2017-03-18T13:21:56.878Z,938.0
2017-03-18T13:23:04.963Z,938.1
2017-03-18T13:24:13.103Z,938.1
2017-03-18T13:25:21.137Z,938.0
2017-03-18T13:26:29.230Z,938.0
2017-03-18T13:27:37.693Z,938.1
2017-03-18T13:28:45.401Z,938.0
2017-03-18T13:29:53.993Z,938.0
2017-03-18T13:31:01.674Z,938.0
2017-03-18T13:32:09.717Z,937.9
2017-03-18T13:33:17.754Z,937.9
2017-03-18T13:34:26.005Z,938.0
2017-03-18T13:35:34.035Z,937.9
2017-03-18T13:36:42.010Z,937.9
2017-03-18T13:37:50.094Z,937.9
2017-03-18T13:38:58.180Z,937.9
2017-03-18T13:40:06.266Z,937.9
2017-03-18T13:41:14.436Z,937.9
2017-03-18T13:42:22.445Z,937.9
2017-03-18T13:43:30.529Z,937.9
2017-03-18T13:44:38.620Z,937.8
2017-03-18T13:45:46.879Z,937.9
2017-03-18T13:46:54.846Z,938.0
2017-03-18T13:48:02.932Z,937.9
2017-03-18T13:49:10.966Z,937.9
2017-03-18T13:50:19.053Z,938.0
2017-03-18T13:51:27.157Z,938.0
2017-03-18T13:52:35.754Z,938.0
2017-03-18T13:53:43.311Z,938.1
2017-03-18T13:54:51.396Z,938.1
2017-03-18T13:55:59.671Z,938.1
2017-03-18T13:57:07.759Z,938.1
2017-03-18T13:58:15.712Z,938.1
2017-03-18T13:59:23.739Z,938.1
2017-03-18T14:00:32.037Z,938.0
2017-03-18T14:01:39.917Z,938.1
2017-03-18T14:02:48.004Z,938.1
2017-03-18T14:03:56.212Z,938.1
2017-03-18T14:05:04.183Z,938.1
2017-03-18T14:06:12.263Z,938.1
2017-03-18T14:07:20.463Z,938.1
2017-03-18T14:08:28.444Z,938.1
2017-03-18T14:09:38.310Z,938.1
2017-03-18T14:10:44.627Z,938.1
2017-03-18T14:11:52.715Z,938.1
2017-03-18T14:13:01.516Z,938.2
2017-03-18T14:14:08.890Z,938.2
2017-03-18T14:15:17.057Z,938.2
2017-03-18T14:16:25.066Z,938.3
2017-03-18T14:17:33.234Z,938.2
2017-03-18T14:18:41.292Z,938.3
2017-03-18T14:19:49.836Z,938.3
2017-03-18T14:20:57.473Z,938.2
2017-03-18T14:22:05.504Z,938.2
2017-03-18T14:23:13.786Z,938.2
2017-03-18T14:24:21.682Z,938.2
2017-03-18T14:25:29.769Z,938.2
2017-03-18T14:26:37.909Z,938.2
2017-03-18T14:27:45.943Z,938.3
2017-03-18T14:28:54.030Z,938.3
2017-03-18T14:30:02.114Z,938.3
2017-03-18T14:31:10.205Z,938.3
2017-03-18T14:32:18.352Z,938.3
2017-03-18T14:33:26.385Z,938.3
2017-03-18T14:34:34.468Z,938.3
2017-03-18T14:35:42.615Z,938.3
2017-03-18T14:36:50.647Z,938.3
2017-03-18T14:37:59.240Z,938.3
2017-03-18T14:39:06.818Z,938.4
2017-03-18T14:40:14.908Z,938.4
2017-03-18T14:41:22.993Z,938.3
2017-03-18T14:42:31.081Z,938.3
2017-03-18T14:43:39.229Z,938.3
2017-03-18T14:44:47.259Z,938.4
2017-03-18T14:45:55.344Z,938.4
2017-03-18T14:47:03.434Z,938.4
2017-03-18T14:48:11.528Z,938.3
2017-03-18T14:49:19.751Z,938.3
2017-03-18T14:50:27.698Z,938.3
2017-03-18T14:51:36.295Z,938.4
2017-03-18T14:52:43.876Z,938.3
2017-03-18T14:53:52.149Z,938.3
2017-03-18T14:55:00.116Z,938.4
2017-03-18T14:56:08.142Z,938.3
2017-03-18T14:57:16.227Z,938.3
2017-03-18T14:58:24.325Z,938.4
2017-03-18T14:59:32.400Z,938.4
2017-03-18T15:00:40.992Z,938.4
2017-03-18T15:01:48.578Z,938.4
2017-03-18T15:02:56.661Z,938.3
2017-03-18T15:04:04.902Z,938.3
2017-03-18T15:05:12.974Z,938.3
2017-03-18T15:06:20.981Z,938.3
2017-03-18T15:07:29.071Z,938.2
2017-03-18T15:08:37.103Z,938.2
2017-03-18T15:09:45.189Z,938.2
2017-03-18T15:10:53.281Z,938.2
2017-03-18T15:12:01.873Z,938.2
2017-03-18T15:13:09.460Z,938.2
2017-03-18T15:14:17.542Z,938.2
2017-03-18T15:15:25.765Z,938.2
2017-03-18T15:16:33.721Z,938.2
2017-03-18T15:17:42.310Z,938.3
2017-03-18T15:18:49.895Z,938.3
2017-03-18T15:19:57.981Z,938.2
2017-03-18T15:21:06.067Z,938.3
2017-03-18T15:22:14.151Z,938.3
2017-03-18T15:23:22.305Z,938.2
2017-03-18T15:24:30.334Z,938.2
2017-03-18T15:25:38.417Z,938.1
2017-03-18T15:26:46.515Z,938.1
2017-03-18T15:27:54.638Z,938.1
2017-03-18T15:29:03.191Z,938.2
2017-03-18T15:30:10.934Z,938.1
2017-03-18T15:31:18.866Z,938.2
2017-03-18T15:32:26.960Z,938.1
2017-03-18T15:33:35.052Z,938.2
2017-03-18T15:34:43.194Z,938.1
2017-03-18T15:35:51.424Z,938.2
2017-03-18T15:36:59.345Z,938.1
2017-03-18T15:38:07.399Z,938.2
2017-03-18T15:39:15.996Z,938.2
2017-03-18T15:40:23.635Z,938.2
2017-03-18T15:41:31.858Z,938.3
2017-03-18T15:42:39.755Z,938.3
2017-03-18T15:43:47.841Z,938.3
2017-03-18T15:44:55.930Z,938.4
2017-03-18T15:46:04.521Z,938.4
2017-03-18T15:47:12.203Z,938.4
2017-03-18T15:48:20.191Z,938.4
2017-03-18T15:49:28.282Z,938.4
2017-03-18T15:50:36.361Z,938.4
2017-03-18T15:51:44.512Z,938.5
2017-03-18T15:52:52.539Z,938.5
2017-03-18T15:54:00.624Z,938.4
2017-03-18T15:55:08.772Z,938.4
2017-03-18T15:56:16.803Z,938.4
2017-03-18T15:57:25.392Z,938.4
2017-03-18T15:58:32.979Z,938.3
2017-03-18T15:59:41.064Z,938.3
2017-03-18T16:00:49.150Z,938.3
2017-03-18T16:01:57.235Z,938.3
2017-03-18T16:03:05.393Z,938.3
2017-03-18T16:04:13.410Z,938.3
2017-03-18T16:05:21.499Z,938.3
2017-03-18T16:06:29.589Z,938.4
2017-03-18T16:07:37.822Z,938.4
2017-03-18T16:08:45.946Z,938.4
2017-03-18T16:09:53.853Z,938.4
2017-03-18T16:11:02.002Z,938.4
2017-03-18T16:12:10.032Z,938.5
2017-03-18T16:13:18.122Z,938.6
2017-03-18T16:14:26.332Z,938.6
2017-03-18T16:15:34.296Z,938.7
2017-03-18T16:16:42.384Z,938.7
2017-03-18T16:17:50.474Z,938.8
2017-03-18T16:18:58.561Z,938.8
2017-03-18T16:20:06.704Z,938.8
2017-03-18T16:21:14.732Z,938.7
2017-03-18T16:22:22.825Z,938.8
2017-03-18T16:23:30.911Z,938.8
2017-03-18T16:24:38.998Z,938.8
2017-03-18T16:25:47.142Z,938.8
2017-03-18T16:26:55.231Z,938.8
2017-03-18T16:28:03.260Z,938.9
2017-03-18T16:29:11.409Z,938.9
2017-03-18T16:30:19.445Z,939.0
2017-03-18T16:31:27.588Z,938.9
2017-03-18T16:32:35.615Z,939.0
2017-03-18T16:33:43.715Z,939.0
2017-03-18T16:34:52.393Z,939.1
2017-03-18T16:35:59.884Z,939.0
2017-03-18T16:37:08.474Z,939.0
2017-03-18T16:38:16.057Z,939.0
2017-03-18T16:39:24.182Z,939.0
2017-03-18T16:40:32.612Z,939.1
2017-03-18T16:41:40.320Z,939.1
2017-03-18T16:42:48.868Z,939.1
2017-03-18T16:43:56.490Z,939.1
2017-03-18T16:45:04.724Z,939.0
2017-03-18T16:46:13.044Z,939.0
2017-03-18T16:47:21.078Z,939.0
2017-03-18T16:48:28.897Z,939.1
2017-03-18T16:49:36.942Z,939.1
2017-03-18T16:50:45.029Z,939.1
2017-03-18T16:51:53.112Z,939.1
2017-03-18T16:53:01.207Z,939.1
2017-03-18T16:54:09.352Z,939.1
2017-03-18T16:55:17.385Z,939.1
2017-03-18T16:56:25.502Z,939.2
2017-03-18T16:57:33.563Z,939.2
2017-03-18T16:58:42.157Z,939.1
2017-03-18T16:59:49.795Z,939.1
2017-03-18T17:00:57.821Z,939.2
2017-03-18T17:02:05.912Z,939.2
2017-03-18T17:03:14.002Z,939.2
2017-03-18T17:04:22.085Z,939.1
2017-03-18T17:05:30.232Z,939.1
2017-03-18T17:06:38.357Z,939.1
2017-03-18T17:07:46.348Z,939.1
2017-03-18T17:08:54.437Z,939.0
2017-03-18T17:10:02.532Z,939.0
2017-03-18T17:11:10.674Z,939.1
2017-03-18T17:12:18.706Z,939.0
2017-03-18T17:13:26.796Z,939.1
2017-03-18T17:14:34.941Z,939.1